| Date | Time | Temp. (oF) | Dew Point (oF) | Rel. Hum. (%) | Press. (in.) | Wind Dir. | Wind Speed (mph) | Hourly Rainfall (in.) |
|
|---|---|---|---|---|---|---|---|---|---|
| 1 | 09/06 | 00:00 | 64 | 61 | 90 | 30.43 | S | 4 | 0.00 |
| 2 | 09/05 | 23:00 | 64 | 60 | 87 | 30.41 | SSE | 0 | 0.00 |
| 3 | 09/05 | 22:00 | 67 | 59 | 78 | 30.41 | NNE | 0 | 0.00 |
| 4 | 09/05 | 21:00 | 71 | 60 | 69 | 30.40 | E | 0 | 0.00 |
| 5 | 09/05 | 20:00 | 76 | 59 | 57 | 30.37 | E | 0 | 0.00 |
| 6 | 09/05 | 19:00 | 80 | 59 | 50 | 30.35 | ESE | 2 | 0.00 |
| 7 | 09/05 | 18:00 | 82 | 57 | 44 | 30.34 | S | 2 | 0.00 |
| 8 | 09/05 | 17:00 | 82 | 57 | 43 | 30.34 | ESE | 5 | 0.00 |
| 9 | 09/05 | 16:00 | 83 | 58 | 44 | 30.35 | NNW | 1 | 0.00 |
| 10 | 09/05 | 15:00 | 83 | 60 | 47 | 30.37 | S | 6 | 0.00 |
| 11 | 09/05 | 14:00 | 82 | 58 | 46 | 30.39 | NE | 4 | 0.00 |
| 12 | 09/05 | 13:00 | 78 | 60 | 55 | 30.40 | NNE | 1 | 0.00 |
| 13 | 09/05 | 12:00 | 79 | 63 | 59 | 30.41 | E | 3 | 0.00 |
| 14 | 09/05 | 11:00 | 75 | 62 | 65 | 30.41 | ENE | 1 | 0.00 |
| 15 | 09/05 | 10:00 | 71 | 61 | 71 | 30.41 | NE | 3 | 0.00 |
| 16 | 09/05 | 09:00 | 64 | 63 | 97 | 30.40 | E | 1 | 0.00 |
| 17 | 09/05 | 08:00 | 56 | 55 | 100 | 30.39 | S | 0 | 0.00 |
| 18 | 09/05 | 07:00 | 54 | 54 | 100 | 30.37 | S | 0 | 0.00 |
| 19 | 09/05 | 06:00 | 55 | 54 | 99 | 30.36 | SE | 0 | 0.00 |
| 20 | 09/05 | 05:00 | 56 | 55 | 97 | 30.34 | SE | 0 | 0.00 |
| 21 | 09/05 | 04:00 | 57 | 55 | 96 | 30.33 | SE | 0 | 0.00 |
| 22 | 09/05 | 03:00 | 58 | 56 | 95 | 30.33 | SE | 0 | 0.00 |
| 23 | 09/05 | 02:00 | 60 | 57 | 93 | 30.32 | E | 0 | 0.00 |
| 24 | 09/05 | 01:00 | 61 | 58 | 90 | 30.30 | NE | 0 | 0.00 |